createdAt,value
2022-11-03T00:01:45.264Z,38.47
2022-11-03T00:04:13.850Z,37.42
2022-11-03T00:06:41.922Z,37.13
2022-11-03T00:09:10.986Z,36.42
2022-11-03T00:11:39.563Z,36.58
2022-11-03T00:14:07.091Z,37.15
2022-11-03T00:16:34.000Z,36.20
2022-11-03T00:19:00.881Z,35.70
2022-11-03T00:21:28.126Z,35.70
2022-11-03T00:23:55.155Z,37.97
2022-11-03T00:26:23.170Z,35.17
2022-11-03T00:28:52.105Z,36.65
2022-11-03T00:31:24.683Z,34.83
2022-11-03T00:33:52.089Z,36.53
2022-11-03T00:36:24.230Z,37.08
2022-11-03T00:38:51.351Z,35.83
2022-11-03T00:41:20.694Z,37.78
2022-11-03T00:43:48.640Z,38.22
2022-11-03T00:46:15.910Z,38.35
2022-11-03T00:48:42.938Z,38.58
2022-11-03T00:51:19.817Z,39.65
2022-11-03T00:53:50.645Z,39.03
2022-11-03T00:56:20.066Z,39.65
2022-11-03T00:58:47.343Z,39.72
2022-11-03T01:01:19.602Z,39.63
2022-11-03T01:04:07.713Z,37.92
2022-11-03T01:06:51.163Z,37.50
2022-11-03T01:09:18.116Z,38.40
2022-11-03T01:12:12.262Z,38.22
2022-11-03T01:14:42.612Z,35.63
2022-11-03T01:17:17.070Z,35.13
2022-11-03T01:19:44.267Z,34.97
2022-11-03T01:22:11.801Z,36.58
2022-11-03T01:24:41.450Z,33.13
2022-11-03T01:27:17.337Z,33.45
2022-11-03T01:29:44.475Z,31.83
2022-11-03T01:32:12.167Z,35.53
2022-11-03T01:34:39.325Z,35.28
2022-11-03T01:37:06.391Z,34.72
2022-11-03T01:39:33.150Z,33.70
2022-11-03T01:42:00.092Z,32.88
2022-11-03T01:44:36.316Z,32.50
2022-11-03T01:47:15.091Z,32.33
2022-11-03T01:49:53.868Z,33.83
2022-11-03T01:52:43.033Z,32.90
2022-11-03T01:55:18.181Z,33.13
2022-11-03T01:57:47.231Z,33.90
2022-11-03T02:00:14.361Z,34.25
2022-11-03T02:02:42.849Z,34.38
2022-11-03T02:05:12.833Z,34.08
2022-11-03T02:07:49.885Z,34.40
2022-11-03T02:10:17.902Z,33.75
2022-11-03T02:12:44.802Z,34.05
2022-11-03T02:15:14.658Z,32.72
2022-11-03T02:17:43.579Z,32.63
2022-11-03T02:20:14.082Z,31.80
2022-11-03T02:22:40.711Z,32.25
2022-11-03T02:25:26.088Z,33.25
2022-11-03T02:27:52.800Z,33.38
2022-11-03T02:30:19.542Z,33.63
2022-11-03T02:33:12.128Z,34.35
2022-11-03T02:36:00.046Z,32.63
2022-11-03T02:38:30.752Z,34.70
2022-11-03T02:41:01.114Z,33.95
2022-11-03T02:43:29.137Z,33.03
2022-11-03T02:45:56.196Z,35.15
2022-11-03T02:48:22.840Z,32.88
2022-11-03T02:50:49.610Z,30.73
2022-11-03T02:53:16.912Z,32.95
2022-11-03T02:55:51.846Z,34.13
2022-11-03T02:58:53.637Z,33.08
2022-11-03T03:01:32.693Z,33.10
2022-11-03T03:04:03.922Z,34.33
2022-11-03T03:06:42.004Z,34.13
2022-11-03T03:09:13.386Z,34.65
2022-11-03T03:11:43.499Z,32.85
2022-11-03T03:14:15.661Z,33.75
2022-11-03T03:16:53.221Z,35.40
2022-11-03T03:19:29.066Z,37.25
2022-11-03T03:21:59.319Z,38.03
2022-11-03T03:24:49.215Z,42.58
2022-11-03T03:27:18.471Z,41.00
2022-11-03T03:29:53.559Z,41.35
2022-11-03T03:32:24.294Z,39.60
2022-11-03T03:34:53.348Z,38.85
2022-11-03T03:37:23.088Z,40.47
2022-11-03T03:39:54.479Z,38.35
2022-11-03T03:42:24.238Z,41.78
2022-11-03T03:44:52.768Z,39.53
2022-11-03T03:47:29.105Z,40.78
2022-11-03T03:49:56.817Z,39.33
2022-11-03T03:52:24.316Z,41.25
2022-11-03T03:54:51.977Z,40.42
2022-11-03T03:57:24.190Z,40.70
2022-11-03T03:59:50.997Z,43.38
2022-11-03T04:02:18.103Z,43.75
2022-11-03T04:04:44.892Z,43.70
2022-11-03T04:07:30.578Z,42.35
2022-11-03T04:09:57.305Z,43.10
2022-11-03T04:12:42.343Z,45.10
2022-11-03T04:15:33.496Z,44.13
2022-11-03T04:18:19.065Z,41.75
2022-11-03T04:21:04.391Z,41.97
2022-11-03T04:23:31.355Z,42.38
2022-11-03T04:25:59.114Z,42.22
2022-11-03T04:28:27.236Z,40.63
2022-11-03T04:30:58.981Z,41.78
2022-11-03T04:33:26.602Z,42.03
2022-11-03T04:35:57.697Z,45.28
2022-11-03T04:38:27.286Z,44.15
2022-11-03T04:40:58.812Z,43.05
2022-11-03T04:43:36.622Z,46.13
2022-11-03T04:46:03.588Z,44.53
2022-11-03T04:48:30.607Z,48.15
2022-11-03T04:51:02.606Z,49.70
2022-11-03T04:53:33.085Z,49.33
2022-11-03T04:56:04.396Z,45.53
2022-11-03T04:58:35.811Z,44.85
2022-11-03T05:01:04.519Z,45.35
2022-11-03T05:03:36.301Z,43.55
2022-11-03T05:06:30.057Z,45.42
2022-11-03T05:09:05.154Z,43.08
2022-11-03T05:11:38.091Z,42.08
2022-11-03T05:14:38.832Z,40.45
2022-11-03T05:17:26.068Z,42.20
2022-11-03T05:20:06.444Z,40.45
2022-11-03T05:22:37.900Z,40.42
2022-11-03T05:25:50.626Z,41.22
2022-11-03T05:28:28.314Z,39.88
2022-11-03T05:30:56.399Z,40.50
2022-11-03T05:33:30.624Z,40.97
2022-11-03T05:36:00.791Z,41.78
2022-11-03T05:38:31.378Z,40.88
2022-11-03T05:40:59.431Z,39.67
2022-11-03T05:43:28.049Z,38.97
2022-11-03T05:45:58.443Z,37.33
2022-11-03T05:48:34.809Z,37.72
2022-11-03T05:51:10.530Z,36.30
2022-11-03T05:53:43.379Z,32.95
2022-11-03T05:56:18.805Z,34.60
2022-11-03T05:58:46.826Z,32.60
2022-11-03T06:01:23.580Z,33.05
2022-11-03T06:03:50.684Z,32.67
2022-11-03T06:06:20.382Z,30.73
2022-11-03T06:08:47.762Z,31.60
2022-11-03T06:11:47.112Z,31.33
2022-11-03T06:14:24.398Z,29.92
2022-11-03T06:17:02.268Z,30.30
2022-11-03T06:19:30.195Z,30.95
2022-11-03T06:22:14.274Z,32.08
2022-11-03T06:24:41.532Z,33.90
2022-11-03T06:27:22.356Z,35.95
2022-11-03T06:30:11.827Z,33.78
2022-11-03T06:32:38.552Z,35.65
2022-11-03T06:35:11.620Z,36.35
2022-11-03T06:37:38.402Z,36.47
2022-11-03T06:40:10.935Z,35.80
2022-11-03T06:42:40.018Z,35.85
2022-11-03T06:45:20.563Z,36.83
2022-11-03T06:47:47.385Z,36.25
2022-11-03T06:50:27.448Z,37.58
2022-11-03T06:52:56.024Z,36.55
2022-11-03T06:55:33.059Z,39.25
2022-11-03T06:58:12.339Z,39.00
2022-11-03T07:00:45.914Z,35.97
2022-11-03T07:03:24.861Z,34.20
2022-11-03T07:08:23.448Z,30.38
2022-11-03T07:11:15.092Z,32.47
2022-11-03T07:13:42.454Z,33.70
2022-11-03T07:16:22.080Z,35.75
2022-11-03T07:18:48.785Z,34.25
2022-11-03T07:21:54.503Z,31.33
2022-11-03T07:24:25.515Z,31.35
2022-11-03T07:27:15.212Z,32.58
2022-11-03T07:29:44.025Z,28.70
2022-11-03T07:32:20.745Z,28.30
2022-11-03T07:34:49.151Z,27.02
2022-11-03T07:37:20.889Z,29.80
2022-11-03T07:39:49.032Z,32.38
2022-11-03T07:42:21.853Z,30.85
2022-11-03T07:44:49.811Z,32.38
2022-11-03T07:47:20.049Z,32.33
2022-11-03T07:49:47.612Z,32.67
2022-11-03T07:52:22.590Z,32.35
2022-11-03T07:54:51.110Z,29.63
2022-11-03T07:57:26.231Z,32.80
2022-11-03T07:59:58.337Z,32.00
2022-11-03T08:02:42.511Z,33.13
2022-11-03T08:05:09.277Z,31.92
2022-11-03T08:07:36.632Z,31.88
2022-11-03T08:10:04.037Z,32.72
2022-11-03T08:12:30.723Z,32.65
2022-11-03T08:14:57.386Z,31.42
2022-11-03T08:17:24.313Z,34.45
2022-11-03T08:19:50.997Z,31.92
2022-11-03T08:22:17.797Z,30.35
2022-11-03T08:24:44.566Z,27.98
2022-11-03T08:27:11.230Z,28.75
2022-11-03T08:29:37.962Z,32.25
2022-11-03T08:32:05.019Z,32.08
2022-11-03T08:34:31.688Z,28.67
2022-11-03T08:36:58.333Z,29.58
2022-11-03T08:39:25.081Z,25.13
2022-11-03T08:41:51.756Z,25.05
2022-11-03T08:44:18.450Z,26.40
2022-11-03T08:46:45.142Z,26.20
2022-11-03T08:49:11.800Z,24.50
2022-11-03T08:51:43.972Z,24.38
2022-11-03T08:54:11.179Z,22.98
2022-11-03T08:56:37.826Z,20.55
2022-11-03T08:59:04.537Z,21.42
2022-11-03T09:01:31.318Z,22.10
2022-11-03T09:03:58.301Z,23.40
2022-11-03T09:06:25.176Z,21.50
2022-11-03T09:11:38.743Z,22.40
2022-11-03T09:14:05.467Z,21.02
2022-11-03T09:16:32.249Z,21.02
2022-11-03T09:18:58.919Z,21.63
2022-11-03T09:21:25.617Z,21.73
2022-11-03T09:23:52.324Z,21.13
2022-11-03T09:26:19.116Z,19.58
2022-11-03T09:28:46.127Z,19.50
2022-11-03T09:31:12.945Z,20.52
2022-11-03T09:33:39.648Z,20.25
2022-11-03T09:36:06.944Z,20.35
2022-11-03T09:38:33.686Z,21.17
2022-11-03T09:41:01.134Z,19.55
2022-11-03T09:43:28.241Z,21.30
2022-11-03T09:45:54.947Z,21.20
2022-11-03T09:48:21.726Z,21.05
2022-11-03T09:50:52.673Z,22.08
2022-11-03T09:53:21.169Z,21.65
2022-11-03T09:55:47.823Z,22.23
2022-11-03T09:58:16.759Z,20.45
2022-11-03T10:00:44.322Z,19.13
2022-11-03T10:03:20.807Z,17.77
2022-11-03T10:05:48.250Z,20.48
2022-11-03T10:08:37.388Z,19.50
2022-11-03T10:11:06.452Z,18.00
2022-11-03T10:13:47.746Z,16.20
2022-11-03T10:16:23.171Z,16.52
2022-11-03T10:18:50.186Z,17.50
2022-11-03T10:21:20.544Z,17.20
2022-11-03T10:23:47.316Z,14.90
2022-11-03T10:26:18.644Z,16.88
2022-11-03T10:28:59.232Z,15.15
2022-11-03T10:31:42.051Z,15.60
2022-11-03T10:34:37.560Z,16.55
2022-11-03T10:37:17.148Z,15.83
2022-11-03T10:39:45.343Z,15.68
2022-11-03T10:42:20.443Z,15.77
2022-11-03T10:44:47.659Z,15.77
2022-11-03T10:47:24.657Z,16.67
2022-11-03T10:49:51.584Z,14.93
2022-11-03T10:52:24.443Z,14.02
2022-11-03T10:54:54.083Z,13.98
2022-11-03T10:57:22.598Z,15.65
2022-11-03T10:59:51.380Z,14.40
2022-11-03T11:02:26.760Z,14.68
2022-11-03T11:04:59.320Z,14.85
2022-11-03T11:07:41.725Z,14.23
2022-11-03T11:10:21.464Z,16.50
2022-11-03T11:13:25.635Z,16.52
2022-11-03T11:16:00.335Z,16.83
2022-11-03T11:18:30.692Z,16.05
2022-11-03T11:21:25.071Z,17.65
2022-11-03T11:23:53.054Z,16.95
2022-11-03T11:26:25.743Z,16.48
2022-11-03T11:29:11.500Z,17.80
2022-11-03T11:31:42.204Z,16.73
2022-11-03T11:34:18.427Z,16.98
2022-11-03T11:37:03.783Z,16.50
2022-11-03T11:39:31.215Z,18.10
2022-11-03T11:42:17.723Z,16.27
2022-11-03T11:44:47.343Z,17.38
2022-11-03T11:47:27.776Z,17.33
2022-11-03T11:50:06.797Z,16.95
2022-11-03T11:52:36.711Z,16.90
2022-11-03T11:55:04.600Z,17.65
2022-11-03T11:57:34.992Z,17.42
2022-11-03T12:00:01.767Z,14.77
2022-11-03T12:02:31.100Z,15.63
2022-11-03T12:05:04.856Z,16.23
2022-11-03T12:07:36.610Z,17.60
2022-11-03T12:10:10.159Z,17.70
2022-11-03T12:12:36.910Z,16.88
2022-11-03T12:15:03.861Z,15.93
2022-11-03T12:17:31.742Z,14.98
2022-11-03T12:19:58.501Z,15.77
2022-11-03T12:22:26.062Z,15.25
2022-11-03T12:24:55.183Z,16.42
2022-11-03T12:27:24.991Z,15.52
2022-11-03T12:29:52.809Z,15.85
2022-11-03T12:32:32.647Z,14.35
2022-11-03T12:35:00.213Z,14.85
2022-11-03T12:37:27.077Z,15.35
2022-11-03T12:39:53.734Z,15.55
2022-11-03T12:42:21.049Z,14.73
2022-11-03T12:44:47.920Z,14.73
2022-11-03T12:47:14.566Z,14.82
2022-11-03T12:49:41.246Z,15.60
2022-11-03T12:52:08.730Z,15.73
2022-11-03T12:54:35.643Z,16.35
2022-11-03T12:57:02.611Z,17.73
2022-11-03T12:59:29.606Z,17.10
2022-11-03T13:01:56.530Z,17.40
2022-11-03T13:04:23.361Z,17.33
2022-11-03T13:06:50.431Z,19.38
2022-11-03T13:09:17.132Z,17.90
2022-11-03T13:12:03.012Z,16.70
2022-11-03T13:16:56.374Z,17.95
2022-11-03T13:19:23.070Z,16.42
2022-11-03T13:21:49.758Z,16.25
2022-11-03T13:24:16.467Z,16.17
2022-11-03T13:26:43.322Z,16.88
2022-11-03T13:29:10.155Z,18.10
2022-11-03T13:31:36.978Z,16.05
2022-11-03T13:34:03.959Z,17.70
2022-11-03T13:36:30.770Z,18.17
2022-11-03T13:38:57.576Z,17.70
2022-11-03T13:41:24.324Z,17.23
2022-11-03T13:43:51.053Z,16.75
2022-11-03T13:46:17.738Z,17.20
2022-11-03T13:51:31.067Z,17.50
2022-11-03T13:59:31.461Z,17.33
2022-11-03T14:04:45.381Z,18.48
2022-11-03T14:07:12.108Z,18.92
2022-11-03T14:09:39.022Z,19.77
2022-11-03T14:12:24.666Z,18.70
2022-11-03T14:14:51.396Z,18.20
2022-11-03T14:17:18.063Z,19.08
2022-11-03T14:19:48.867Z,18.33
2022-11-03T14:22:19.243Z,19.63
2022-11-03T14:24:46.053Z,18.45
2022-11-03T14:27:13.118Z,19.02
2022-11-03T14:29:39.834Z,19.95
2022-11-03T14:32:06.608Z,19.63
2022-11-03T14:34:33.529Z,19.40
2022-11-03T14:37:00.311Z,18.13
2022-11-03T14:39:27.480Z,19.95
2022-11-03T14:42:03.549Z,19.88
2022-11-03T14:44:36.617Z,19.83
2022-11-03T14:47:05.503Z,19.38
2022-11-03T14:49:33.434Z,19.75
2022-11-03T14:52:04.328Z,19.02
2022-11-03T14:54:31.868Z,19.38
2022-11-03T14:56:58.925Z,19.33
2022-11-03T14:59:27.035Z,19.20
2022-11-03T15:01:54.667Z,19.88
2022-11-03T15:04:23.071Z,19.00
2022-11-03T15:06:50.402Z,19.20
2022-11-03T15:09:18.156Z,19.88
2022-11-03T15:11:45.371Z,20.17
2022-11-03T15:14:12.872Z,20.42
2022-11-03T15:16:40.248Z,20.92
2022-11-03T15:19:07.646Z,19.63
2022-11-03T15:21:35.636Z,19.85
2022-11-03T15:26:49.688Z,22.08
2022-11-03T15:29:16.475Z,19.92
2022-11-03T15:31:47.596Z,20.48
2022-11-03T15:34:15.637Z,20.70
2022-11-03T15:36:42.406Z,20.65
2022-11-03T15:39:09.496Z,20.92
2022-11-03T15:41:36.271Z,21.35
2022-11-03T15:44:02.945Z,21.10
2022-11-03T15:46:29.597Z,22.73
2022-11-03T15:48:58.021Z,23.17
2022-11-03T15:51:25.190Z,20.88
2022-11-03T15:53:57.812Z,21.92
2022-11-03T15:56:25.944Z,21.92
2022-11-03T15:58:52.672Z,21.08
2022-11-03T16:01:19.552Z,22.13
2022-11-03T16:03:46.375Z,21.55
2022-11-03T16:06:13.086Z,23.85
2022-11-03T16:08:39.771Z,24.17
2022-11-03T16:11:06.869Z,24.67
2022-11-03T16:13:33.556Z,23.85
2022-11-03T16:16:00.310Z,25.38
2022-11-03T16:18:27.328Z,24.73
2022-11-03T16:20:54.028Z,23.63
2022-11-03T16:23:20.736Z,24.63
2022-11-03T16:25:47.890Z,24.33
2022-11-03T16:28:14.543Z,24.52
2022-11-03T16:30:41.259Z,24.52
2022-11-03T16:33:09.033Z,26.05
2022-11-03T16:35:35.667Z,25.27
2022-11-03T16:38:02.385Z,27.20
2022-11-03T16:40:29.262Z,25.67
2022-11-03T16:42:56.002Z,26.88
2022-11-03T16:45:26.494Z,27.38
2022-11-03T16:47:53.774Z,26.42
2022-11-03T16:50:21.114Z,26.38
2022-11-03T16:52:49.263Z,26.17
2022-11-03T16:55:17.675Z,26.75
2022-11-03T16:57:45.502Z,28.02
2022-11-03T17:00:15.371Z,27.60
2022-11-03T17:02:42.831Z,27.65
2022-11-03T17:05:10.502Z,28.65
2022-11-03T17:07:37.393Z,29.55
2022-11-03T17:10:08.519Z,29.23
2022-11-03T17:12:35.278Z,29.48
2022-11-03T17:15:02.008Z,28.90
2022-11-03T17:17:28.777Z,30.73
2022-11-03T17:19:55.567Z,29.85
2022-11-03T17:22:22.540Z,29.38
2022-11-03T17:24:49.958Z,30.50
2022-11-03T17:27:33.831Z,29.08
2022-11-03T17:30:06.840Z,30.23
2022-11-03T17:32:40.150Z,30.85
2022-11-03T17:35:21.885Z,31.27
2022-11-03T17:37:49.846Z,32.65
2022-11-03T17:40:26.470Z,30.95
2022-11-03T17:42:53.294Z,29.98
2022-11-03T17:45:21.702Z,31.05
2022-11-03T17:47:51.516Z,31.35
2022-11-03T17:50:23.507Z,28.33
2022-11-03T17:52:51.453Z,29.02
2022-11-03T17:55:29.230Z,27.95
2022-11-03T17:57:58.813Z,28.75
2022-11-03T18:00:26.198Z,27.58
2022-11-03T18:02:55.139Z,29.08
2022-11-03T18:05:28.725Z,30.30
2022-11-03T18:07:57.607Z,29.58
2022-11-03T18:10:28.549Z,28.55
2022-11-03T18:13:18.349Z,27.08
2022-11-03T18:15:51.250Z,28.00
2022-11-03T18:18:30.331Z,27.50
2022-11-03T18:20:57.696Z,28.83
2022-11-03T18:23:33.899Z,28.25
2022-11-03T18:26:12.925Z,27.50
2022-11-03T18:28:39.589Z,27.70
2022-11-03T18:31:14.529Z,27.25
2022-11-03T18:33:41.237Z,28.75
2022-11-03T18:36:09.910Z,29.33
2022-11-03T18:38:39.816Z,29.55
2022-11-03T18:41:32.944Z,31.75
2022-11-03T18:43:59.629Z,30.25
2022-11-03T18:46:26.274Z,29.20
2022-11-03T18:48:53.014Z,29.70
2022-11-03T18:51:19.685Z,29.67
2022-11-03T18:53:46.686Z,29.70
2022-11-03T18:56:15.394Z,30.50
2022-11-03T18:58:42.250Z,30.38
2022-11-03T19:01:21.458Z,31.15
2022-11-03T19:03:48.451Z,31.02
2022-11-03T19:06:15.809Z,30.38
2022-11-03T19:08:44.940Z,31.27
2022-11-03T19:11:12.708Z,32.85
2022-11-03T19:13:45.443Z,31.30
2022-11-03T19:16:19.882Z,31.33
2022-11-03T19:18:47.167Z,33.72
2022-11-03T19:21:18.930Z,31.67
2022-11-03T19:23:48.041Z,31.80
2022-11-03T19:26:31.133Z,32.60
2022-11-03T19:29:03.555Z,33.22
2022-11-03T19:31:42.644Z,33.60
2022-11-03T19:34:15.764Z,32.60
2022-11-03T19:36:43.608Z,32.97
2022-11-03T19:39:33.209Z,32.17
2022-11-03T19:42:21.344Z,32.53
2022-11-03T19:44:50.396Z,32.92
2022-11-03T19:47:18.267Z,33.40
2022-11-03T19:49:46.595Z,32.42
2022-11-03T19:52:17.933Z,33.67
2022-11-03T19:54:47.891Z,33.40
2022-11-03T19:57:16.788Z,33.38
2022-11-03T19:59:44.676Z,34.60
2022-11-03T20:02:13.332Z,32.85
2022-11-03T20:04:46.704Z,34.17
2022-11-03T20:07:15.535Z,33.60
2022-11-03T20:09:42.788Z,33.88
2022-11-03T20:12:13.527Z,34.70
2022-11-03T20:14:40.248Z,33.60
2022-11-03T20:17:16.575Z,34.17
2022-11-03T20:19:44.253Z,32.72
2022-11-03T20:22:18.188Z,32.45
2022-11-03T20:24:46.368Z,31.92
2022-11-03T20:27:13.921Z,31.00
2022-11-03T20:29:40.849Z,31.75
2022-11-03T20:32:12.561Z,30.23
2022-11-03T20:34:40.084Z,31.20
2022-11-03T20:37:18.728Z,31.13
2022-11-03T20:39:46.648Z,29.77
2022-11-03T20:42:23.499Z,30.50
2022-11-03T20:44:50.922Z,31.65
2022-11-03T20:47:18.674Z,32.00
2022-11-03T20:49:46.137Z,32.72
2022-11-03T20:52:13.857Z,31.40
2022-11-03T20:54:43.149Z,33.47
2022-11-03T20:57:12.832Z,34.35
2022-11-03T20:59:39.823Z,33.78
2022-11-03T21:02:12.029Z,34.28
2022-11-03T21:04:38.984Z,32.15
2022-11-03T21:07:05.676Z,33.70
2022-11-03T21:09:32.392Z,33.88
2022-11-03T21:11:59.337Z,35.13
2022-11-03T21:14:30.456Z,33.70
2022-11-03T21:17:16.114Z,32.75
2022-11-03T21:20:09.404Z,34.55
2022-11-03T21:22:52.289Z,33.20
2022-11-03T21:25:21.918Z,32.38
2022-11-03T21:27:49.707Z,32.83
2022-11-03T21:30:17.267Z,30.25
2022-11-03T21:32:44.093Z,30.83
2022-11-03T21:35:16.289Z,30.77
2022-11-03T21:37:43.211Z,31.27
2022-11-03T21:40:10.752Z,29.55
2022-11-03T21:42:55.933Z,30.48
2022-11-03T21:45:22.593Z,28.33
2022-11-03T21:48:13.151Z,28.48
2022-11-03T21:50:40.693Z,27.75
2022-11-03T21:53:07.809Z,26.42
2022-11-03T21:55:35.419Z,26.83
2022-11-03T21:58:02.922Z,24.85
2022-11-03T22:00:31.970Z,25.17
2022-11-03T22:02:59.834Z,22.70
2022-11-03T22:05:26.780Z,23.35
2022-11-03T22:07:53.735Z,23.48
2022-11-03T22:10:20.773Z,24.42
2022-11-03T22:12:47.674Z,24.70
2022-11-03T22:15:32.894Z,24.50
2022-11-03T22:18:06.376Z,24.00
2022-11-03T22:20:52.459Z,21.17
2022-11-03T22:23:37.790Z,21.27
2022-11-03T22:26:23.333Z,20.52
2022-11-03T22:29:09.926Z,21.08
2022-11-03T22:31:42.951Z,22.15
2022-11-03T22:34:28.130Z,23.15
2022-11-03T22:36:54.998Z,21.37
2022-11-03T22:39:40.083Z,20.08
2022-11-03T22:42:25.679Z,21.27
2022-11-03T22:45:11.055Z,21.05
2022-11-03T22:47:37.989Z,22.38
2022-11-03T22:50:05.028Z,21.52
2022-11-03T22:52:31.673Z,21.67
2022-11-03T22:54:58.408Z,21.08
2022-11-03T22:57:25.112Z,20.77
2022-11-03T22:59:51.876Z,22.63
2022-11-03T23:02:19.010Z,20.88
2022-11-03T23:04:46.738Z,22.02
2022-11-03T23:07:13.417Z,21.63
2022-11-03T23:09:40.190Z,20.88
2022-11-03T23:12:06.927Z,21.17
2022-11-03T23:14:52.189Z,19.25
2022-11-03T23:17:18.873Z,20.27
2022-11-03T23:20:04.056Z,19.58
2022-11-03T23:22:30.723Z,17.83
2022-11-03T23:25:00.138Z,15.85
2022-11-03T23:27:27.188Z,14.35
2022-11-03T23:29:53.859Z,14.93
2022-11-03T23:32:20.658Z,13.32
2022-11-03T23:34:47.395Z,14.80
2022-11-03T23:37:14.334Z,13.98
2022-11-03T23:39:40.962Z,14.23
2022-11-03T23:42:07.663Z,13.18
2022-11-03T23:44:53.085Z,13.32
2022-11-03T23:47:38.388Z,13.10
2022-11-03T23:50:05.548Z,11.73
2022-11-03T23:52:32.270Z,12.60
2022-11-03T23:54:58.951Z,12.25
2022-11-03T23:57:44.231Z,12.40
